Time;durP1;ratioP1;P1;durP2;ratioP2;P2;SDS_P1;SDS_P2;PMS_P1;PMS_P2;Temp;Humidity;BMP_temperature;BMP_pressure;BME280_temperature;BME280_humidity;BME280_pressure;Samples;Min_cycle;Max_cycle;Signal;HPM_P1;HPM_P2
2022/07/03 00:00:19;;;;;;;15.20;7.35;;;25.30;99.90;;;;;;4792479;29;20064;-81
2022/07/03 00:02:46;;;;;;;11.27;6.90;;;25.30;99.90;;;;;;4778849;29;20540;-83
2022/07/03 00:05:14;;;;;;;12.40;7.10;;;25.30;99.90;;;;;;4793135;29;20123;-82
2022/07/03 00:07:42;;;;;;;8.93;6.50;;;25.50;99.90;;;;;;4776426;29;20051;-79
2022/07/03 00:10:09;;;;;;;11.30;6.45;;;25.60;99.90;;;;;;4792087;29;20046;-82
2022/07/03 00:12:37;;;;;;;12.40;6.80;;;25.50;99.90;;;;;;4778300;29;20056;-78
2022/07/03 00:15:05;;;;;;;11.73;7.00;;;25.40;99.90;;;;;;4793867;29;20055;-81
2022/07/03 00:17:33;;;;;;;17.85;7.00;;;25.30;99.90;;;;;;4791613;29;20053;-84
2022/07/03 00:20:00;;;;;;;11.68;6.90;;;25.00;99.90;;;;;;4794779;29;20050;-83
2022/07/03 00:22:29;;;;;;;448.75;406.10;;;25.00;99.90;;;;;;4793899;29;20392;-82
2022/07/03 00:25:03;;;;;;;;;;;25.00;99.90;;;;;;4793959;29;20458;-81
2022/07/03 00:27:35;;;;;;;217.82;195.65;;;25.20;99.90;;;;;;4775883;29;19932;-84
2022/07/03 00:30:04;;;;;;;14.95;7.53;;;25.20;99.90;;;;;;4789601;29;20059;-83
2022/07/03 00:32:32;;;;;;;18.02;8.48;;;25.10;99.90;;;;;;4787084;29;20067;-80
2022/07/03 00:35:00;;;;;;;12.52;8.25;;;24.90;99.90;;;;;;4787775;30;20047;-84
2022/07/03 00:37:28;;;;;;;159.15;137.95;;;24.80;99.90;;;;;;4787244;30;20425;-78
2022/07/03 00:39:57;;;;;;;294.33;262.70;;;24.80;99.90;;;;;;4770911;30;20055;-80
2022/07/03 00:42:28;;;;;;;269.20;234.82;;;24.80;99.90;;;;;;4787220;30;20101;-81
2022/07/03 00:44:57;;;;;;;231.50;153.30;;;24.80;99.90;;;;;;4785630;30;20605;-79
2022/07/03 00:47:26;;;;;;;13.60;8.80;;;24.80;99.90;;;;;;4770880;30;20072;-82
2022/07/03 00:49:59;;;;;;;13.68;8.38;;;24.60;99.90;;;;;;4786623;30;20193;-81
2022/07/03 00:52:30;;;;;;;16.75;8.77;;;24.70;99.90;;;;;;4770495;30;20055;-80
2022/07/03 00:54:59;;;;;;;12.23;8.70;;;24.50;99.90;;;;;;4787125;30;20051;-79
2022/07/03 00:57:29;;;;;;;18.58;9.18;;;24.50;99.90;;;;;;4785657;30;20062;-81
2022/07/03 00:59:58;;;;;;;11.90;8.13;;;24.50;99.90;;;;;;4770636;30;20144;-82
2022/07/03 01:02:44;;;;;;;78.50;71.00;;;24.60;99.90;;;;;;4786987;30;20058;-79
2022/07/03 01:05:52;;;;;;;213.50;190.18;;;24.30;99.90;;;;;;4771319;30;19940;-85
2022/07/03 01:08:32;;;;;;;277.60;249.35;;;24.40;99.90;;;;;;4759829;30;20445;-80
2022/07/03 01:11:39;;;;;;;373.92;334.30;;;24.20;99.90;;;;;;4786750;30;20051;-82
2022/07/03 01:14:23;;;;;;;;;;;24.30;99.90;;;;;;4786157;30;20070;-83
2022/07/03 01:17:06;;;;;;;11.95;8.95;;;24.20;99.90;;;;;;4785882;30;19929;-82
2022/07/03 01:19:45;;;;;;;11.70;8.55;;;24.30;99.90;;;;;;4792042;29;20418;-81
2022/07/03 01:22:36;;;;;;;15.38;8.15;;;24.30;99.90;;;;;;4792798;30;20133;-81
2022/07/03 01:25:18;;;;;;;13.77;9.15;;;24.20;99.90;;;;;;4793378;30;20055;-81
2022/07/03 01:28:03;;;;;;;12.65;8.40;;;24.20;99.90;;;;;;4792601;30;20047;-80
2022/07/03 01:30:32;;;;;;;;;;;24.40;99.90;;;;;;4792617;30;20051;-80
2022/07/03 01:33:04;;;;;;;15.13;8.93;;;24.40;99.90;;;;;;4792466;30;20305;-81
2022/07/03 01:35:35;;;;;;;12.05;8.35;;;24.40;99.90;;;;;;4792429;30;20051;-82
2022/07/03 01:38:04;;;;;;;;;;;24.40;99.90;;;;;;4792801;30;20114;-81
2022/07/03 01:40:33;;;;;;;17.63;8.55;;;24.40;99.90;;;;;;4792101;30;19925;-81
2022/07/03 01:43:03;;;;;;;353.83;315.73;;;24.30;99.90;;;;;;4792605;30;20061;-83
2022/07/03 01:45:38;;;;;;;12.88;8.00;;;24.40;99.90;;;;;;4792316;30;20055;-82
2022/07/03 01:48:07;;;;;;;13.45;8.55;;;24.30;99.90;;;;;;4792446;30;20051;-81
2022/07/03 01:50:37;;;;;;;16.00;8.15;;;24.00;99.90;;;;;;4776375;30;20035;-83
2022/07/03 01:53:07;;;;;;;11.40;8.63;;;23.90;99.90;;;;;;4792508;30;20047;-79
2022/07/03 01:55:37;;;;;;;12.20;8.18;;;23.90;99.90;;;;;;4792390;30;20092;-78
2022/07/03 01:58:05;;;;;;;12.30;8.48;;;23.90;99.90;;;;;;4761794;30;20062;-82
2022/07/03 02:01:09;;;;;;;15.45;8.05;;;23.90;99.90;;;;;;4761519;30;20058;-79
2022/07/03 02:03:51;;;;;;;13.20;8.50;;;23.90;99.90;;;;;;4768142;30;20055;-80
2022/07/03 02:06:36;;;;;;;312.00;199.10;;;23.90;99.90;;;;;;4792729;30;19930;-80
2022/07/03 02:09:06;;;;;;;146.60;108.50;;;23.80;99.90;;;;;;4792021;30;20058;-80
2022/07/03 02:11:54;;;;;;;12.43;8.05;;;24.00;99.90;;;;;;4792126;30;20108;-83
2022/07/03 02:14:36;;;;;;;13.13;8.23;;;24.00;99.90;;;;;;4792095;30;20047;-83
2022/07/03 02:17:10;;;;;;;12.65;8.90;;;24.10;99.90;;;;;;4792359;30;20051;-83
2022/07/03 02:20:00;;;;;;;12.95;8.98;;;24.10;99.90;;;;;;4791813;30;20058;-82
2022/07/03 02:22:32;;;;;;;14.93;8.43;;;24.00;99.90;;;;;;4792887;30;20063;-81
2022/07/03 02:25:08;;;;;;;11.70;8.95;;;24.00;99.90;;;;;;4792518;30;20055;-80
2022/07/03 02:27:54;;;;;;;12.90;7.88;;;23.80;99.90;;;;;;4792388;30;20109;-80
2022/07/03 02:30:24;;;;;;;15.23;8.35;;;23.70;99.90;;;;;;4789570;29;20412;-80
2022/07/03 02:32:53;;;;;;;13.52;8.32;;;23.80;99.90;;;;;;4789487;30;20047;-80
2022/07/03 02:35:29;;;;;;;14.20;7.90;;;23.90;99.90;;;;;;4787969;30;20122;-80
2022/07/03 02:38:09;;;;;;;12.60;7.75;;;23.80;99.90;;;;;;4789343;29;20043;-80
2022/07/03 02:40:45;;;;;;;12.48;7.97;;;23.80;99.90;;;;;;4788806;30;20047;-80
2022/07/03 02:43:47;;;;;;;10.70;7.78;;;23.70;99.90;;;;;;4789048;30;20565;-79
2022/07/03 02:49:28;;;;;;;14.02;8.40;;;23.50;99.90;;;;;;4788923;30;20039;-82
2022/07/03 02:52:24;;;;;;;15.57;8.43;;;23.60;99.90;;;;;;4788869;30;20054;-82
2022/07/03 02:54:54;;;;;;;13.25;8.13;;;23.60;99.90;;;;;;4742992;30;20142;-80
2022/07/03 02:57:22;;;;;;;13.02;8.90;;;23.50;99.90;;;;;;4788687;30;20048;-80
2022/07/03 02:59:53;;;;;;;15.90;8.77;;;23.50;99.90;;;;;;4772885;30;20086;-80
2022/07/03 03:02:57;;;;;;;10.60;8.13;;;23.50;99.90;;;;;;4788512;30;20054;-79
2022/07/03 03:05:40;;;;;;;11.57;8.85;;;23.40;99.90;;;;;;4788605;30;20044;-79
2022/07/03 03:08:31;;;;;;;12.45;8.55;;;23.50;99.90;;;;;;4788735;30;20055;-79
2022/07/03 03:11:08;;;;;;;12.85;8.70;;;23.50;99.90;;;;;;4788390;30;20047;-79
2022/07/03 03:13:36;;;;;;;11.05;8.63;;;23.50;99.90;;;;;;4788390;30;20051;-79
2022/07/03 03:16:07;;;;;;;12.02;9.15;;;23.40;99.90;;;;;;4788236;30;20413;-79
2022/07/03 03:18:43;;;;;;;14.35;9.52;;;23.40;99.90;;;;;;4788233;30;20574;-79
2022/07/03 03:21:16;;;;;;;12.43;9.20;;;23.30;99.90;;;;;;4788280;29;20063;-82
2022/07/03 03:23:49;;;;;;;15.20;9.27;;;23.10;99.90;;;;;;4787773;30;20064;-78
2022/07/03 03:26:22;;;;;;;11.88;8.75;;;23.20;99.90;;;;;;4788324;30;20047;-84
2022/07/03 03:28:51;;;;;;;14.63;9.32;;;23.20;99.90;;;;;;4787959;30;20451;-82
2022/07/03 03:31:20;;;;;;;14.48;9.55;;;23.00;99.90;;;;;;4788132;30;20454;-82
2022/07/03 03:33:49;;;;;;;15.43;9.45;;;23.00;99.90;;;;;;4787563;30;20051;-82
2022/07/03 03:36:19;;;;;;;15.85;9.00;;;22.90;99.90;;;;;;4788001;30;20047;-82
2022/07/03 03:38:48;;;;;;;18.85;11.18;;;23.00;99.90;;;;;;4787891;30;20046;-80
2022/07/03 03:41:16;;;;;;;13.57;9.25;;;23.20;99.90;;;;;;4787695;29;20643;-80
2022/07/03 03:43:45;;;;;;;14.40;9.43;;;23.20;99.90;;;;;;4771874;30;20052;-80
2022/07/03 03:46:14;;;;;;;13.02;9.13;;;23.20;99.90;;;;;;4787735;30;20577;-82
2022/07/03 03:48:42;;;;;;;12.03;9.37;;;23.30;99.90;;;;;;4787807;30;20530;-82
2022/07/03 03:51:09;;;;;;;15.02;9.93;;;23.60;99.90;;;;;;4771428;30;20508;-77
2022/07/03 03:53:37;;;;;;;12.05;8.57;;;23.70;99.90;;;;;;4787704;30;20050;-78
2022/07/03 03:56:10;;;;;;;12.70;9.80;;;23.80;99.90;;;;;;4787693;30;20416;-81
2022/07/03 03:58:40;;;;;;;13.95;9.13;;;23.60;99.90;;;;;;4787412;30;20051;-80
2022/07/03 04:01:09;;;;;;;14.35;9.07;;;23.60;99.90;;;;;;4771421;30;20085;-79
2022/07/03 04:03:38;;;;;;;16.05;9.70;;;23.40;99.90;;;;;;4787454;30;20173;-81
2022/07/03 04:06:05;;;;;;;20.02;9.57;;;23.30;99.90;;;;;;4771647;30;20047;-83
2022/07/03 04:08:33;;;;;;;14.98;10.07;;;23.50;99.90;;;;;;4771719;30;20469;-81
2022/07/03 04:11:01;;;;;;;12.10;9.40;;;23.30;99.90;;;;;;4787685;30;20051;-81
2022/07/03 04:13:28;;;;;;;13.48;8.75;;;23.30;99.90;;;;;;4771868;30;20047;-80
2022/07/03 04:15:56;;;;;;;12.18;8.85;;;23.50;99.90;;;;;;4787608;30;20051;-81
2022/07/03 04:18:24;;;;;;;13.65;9.45;;;23.70;99.90;;;;;;4787743;30;20092;-80
2022/07/03 04:20:58;;;;;;;14.43;10.30;;;23.90;99.90;;;;;;4772683;30;20082;-79
2022/07/03 04:23:26;;;;;;;11.73;9.02;;;23.80;99.90;;;;;;4787439;30;20379;-81
2022/07/03 04:25:53;;;;;;;13.55;9.10;;;24.00;99.90;;;;;;4786979;30;20043;-83
2022/07/03 04:28:21;;;;;;;20.75;9.85;;;24.10;99.90;;;;;;4756936;30;20420;-82
2022/07/03 04:30:48;;;;;;;12.88;9.20;;;24.10;99.90;;;;;;4787288;30;20416;-79
2022/07/03 04:33:16;;;;;;;14.90;10.18;;;23.90;99.90;;;;;;4771415;30;20466;-81
2022/07/03 04:35:43;;;;;;;13.23;10.15;;;23.60;99.90;;;;;;4786977;30;20073;-81
2022/07/03 04:38:11;;;;;;;15.85;10.07;;;23.20;99.90;;;;;;4787334;30;20384;-78
2022/07/03 04:40:39;;;;;;;16.13;9.00;;;23.50;99.90;;;;;;4771090;30;20047;-80
2022/07/03 04:43:06;;;;;;;14.82;9.32;;;23.90;99.90;;;;;;4787297;30;20524;-79
2022/07/03 04:45:34;;;;;;;17.45;9.98;;;24.10;99.90;;;;;;4787002;30;20052;-81
2022/07/03 04:48:01;;;;;;;12.30;9.43;;;24.20;99.90;;;;;;4758983;30;20051;-81
2022/07/03 04:50:29;;;;;;;16.13;9.45;;;24.30;99.90;;;;;;4753443;30;20063;-81
2022/07/03 04:52:56;;;;;;;14.15;9.98;;;24.30;99.90;;;;;;4767769;30;20047;-79
2022/07/03 04:55:24;;;;;;;16.27;9.90;;;24.50;99.90;;;;;;4769128;30;20501;-78
2022/07/03 04:57:52;;;;;;;16.33;9.40;;;24.20;99.90;;;;;;4769564;30;20055;-80
2022/07/03 05:00:19;;;;;;;17.02;10.20;;;24.30;99.90;;;;;;4768891;30;20055;-78
2022/07/03 05:02:47;;;;;;;16.85;10.30;;;24.40;99.90;;;;;;4769372;30;20051;-80
2022/07/03 05:05:15;;;;;;;16.15;10.82;;;24.40;99.90;;;;;;4769038;30;20401;-83
2022/07/03 05:07:42;;;;;;;16.58;10.10;;;24.50;99.90;;;;;;4769203;30;20055;-82
2022/07/03 05:10:09;;;;;;;14.93;10.65;;;24.40;99.90;;;;;;4768866;30;20072;-79
2022/07/03 05:12:37;;;;;;;16.75;9.60;;;24.50;99.90;;;;;;4769420;30;20055;-81
2022/07/03 05:15:08;;;;;;;11.98;9.65;;;24.60;99.90;;;;;;4768713;30;20104;-81
2022/07/03 05:17:36;;;;;;;19.15;9.70;;;24.70;99.90;;;;;;4767554;30;20052;-80
2022/07/03 05:22:51;;;;;;;15.82;10.25;;;24.90;99.90;;;;;;4786877;29;20057;-80
2022/07/03 05:25:19;;;;;;;16.52;10.18;;;25.00;99.90;;;;;;4786639;30;20053;-78
2022/07/03 05:27:47;;;;;;;15.75;10.55;;;25.00;99.90;;;;;;4786542;30;20039;-79
2022/07/03 05:30:14;;;;;;;17.08;10.27;;;24.60;99.90;;;;;;4786598;30;20051;-78
2022/07/03 05:32:42;;;;;;;21.92;10.27;;;24.70;99.90;;;;;;4787146;30;20397;-81
2022/07/03 05:35:09;;;;;;;21.67;10.35;;;24.80;99.90;;;;;;4786678;30;20054;-82
2022/07/03 05:37:37;;;;;;;14.90;10.15;;;24.90;99.90;;;;;;4770645;30;20055;-82
2022/07/03 05:40:06;;;;;;;12.10;9.73;;;25.00;99.90;;;;;;4787108;30;20365;-81
2022/07/03 05:42:34;;;;;;;17.30;10.32;;;25.00;99.90;;;;;;4770506;30;20063;-82
2022/07/03 05:45:02;;;;;;;14.70;10.02;;;25.10;99.90;;;;;;4770283;30;20044;-81
2022/07/03 05:47:29;;;;;;;15.57;9.93;;;25.10;99.90;;;;;;4786457;30;20078;-81
2022/07/03 05:49:57;;;;;;;14.68;9.50;;;25.30;99.90;;;;;;4786269;30;20047;-83
2022/07/03 05:52:24;;;;;;;14.27;9.20;;;25.30;99.90;;;;;;4771358;30;20412;-82
2022/07/03 05:54:52;;;;;;;17.67;9.57;;;25.40;99.90;;;;;;4786970;30;20658;-80
2022/07/03 05:57:20;;;;;;;18.38;9.65;;;25.40;99.90;;;;;;4786643;30;20051;-79
2022/07/03 05:59:47;;;;;;;12.02;9.23;;;25.40;99.90;;;;;;4786572;30;20050;-80
2022/07/03 06:02:15;;;;;;;12.68;10.15;;;25.50;99.90;;;;;;4786384;30;20055;-81
2022/07/03 06:04:42;;;;;;;17.58;10.98;;;25.40;99.90;;;;;;4786160;29;20051;-82
2022/07/03 06:07:10;;;;;;;16.40;10.85;;;25.30;99.90;;;;;;4790224;30;20503;-83
2022/07/03 06:09:37;;;;;;;13.13;9.40;;;25.30;99.90;;;;;;4790689;30;20047;-83
2022/07/03 06:12:05;;;;;;;13.63;9.38;;;25.40;99.90;;;;;;4789981;30;20063;-85
2022/07/03 06:14:32;;;;;;;14.90;9.18;;;25.40;99.90;;;;;;4789793;30;20039;-84
2022/07/03 06:17:00;;;;;;;51.15;36.20;;;25.30;99.90;;;;;;4789702;30;20051;-84
2022/07/03 06:19:36;;;;;;;14.00;10.68;;;25.50;99.90;;;;;;4773818;30;20090;-80
2022/07/03 06:22:04;;;;;;;57.72;46.80;;;25.50;99.90;;;;;;4785310;30;20409;-84
2022/07/03 06:24:31;;;;;;;45.67;36.60;;;25.50;99.90;;;;;;4779079;30;20036;-86
2022/07/03 06:27:24;;;;;;;24.08;17.90;;;25.60;99.90;;;;;;4781159;30;20047;-87
2022/07/03 06:29:58;;;;;;;47.47;37.70;;;25.70;99.90;;;;;;4781148;30;20393;-84
2022/07/03 06:32:26;;;;;;;23.42;15.13;;;25.80;99.90;;;;;;4745226;30;20453;-86
2022/07/03 06:34:53;;;;;;;15.48;11.02;;;26.00;99.90;;;;;;4777243;30;20040;-82
2022/07/03 06:37:21;;;;;;;17.60;10.40;;;25.90;99.90;;;;;;4781296;30;20039;-84
2022/07/03 06:39:49;;;;;;;13.02;10.30;;;25.90;99.90;;;;;;4764566;30;20044;-87
2022/07/03 06:42:16;;;;;;;13.10;9.68;;;26.00;99.90;;;;;;4763371;30;20079;-83
2022/07/03 06:44:44;;;;;;;13.55;9.75;;;25.90;99.90;;;;;;4778994;30;20093;-84
2022/07/03 06:47:18;;;;;;;12.63;9.85;;;26.00;99.90;;;;;;4781257;30;20054;-85
2022/07/03 06:49:45;;;;;;;16.80;10.25;;;26.00;99.90;;;;;;4779783;30;20039;-83
2022/07/03 06:52:13;;;;;;;12.93;9.07;;;26.00;99.90;;;;;;4780939;30;20556;-86
2022/07/03 06:54:43;;;;;;;16.85;9.50;;;26.10;99.90;;;;;;4763075;30;20444;-85
2022/07/03 06:57:11;;;;;;;14.07;9.55;;;26.10;99.90;;;;;;4779583;30;20050;-87
2022/07/03 06:59:39;;;;;;;17.17;9.15;;;26.10;99.90;;;;;;4765225;30;20074;-82
2022/07/03 07:02:07;;;;;;;13.40;9.05;;;26.30;99.90;;;;;;4763937;30;20070;-82
2022/07/03 07:04:37;;;;;;;16.97;9.73;;;26.30;99.90;;;;;;4764108;30;20265;-83
2022/07/03 07:07:07;;;;;;;15.80;8.65;;;26.30;99.90;;;;;;4779110;30;20296;-86
2022/07/03 07:09:34;;;;;;;13.68;9.70;;;26.40;99.90;;;;;;4779029;30;20050;-83
2022/07/03 07:12:02;;;;;;;13.38;8.90;;;26.40;99.90;;;;;;4778843;30;20501;-84
2022/07/03 07:14:29;;;;;;;13.35;8.85;;;26.50;99.90;;;;;;4765930;30;20088;-84
2022/07/03 07:16:57;;;;;;;12.85;9.48;;;26.50;99.90;;;;;;4772328;30;20043;-82
2022/07/03 07:19:24;;;;;;;11.73;8.93;;;26.60;99.90;;;;;;4736877;30;20068;-81
2022/07/03 07:21:52;;;;;;;12.23;9.57;;;26.50;99.90;;;;;;4760818;30;20063;-82
2022/07/03 07:24:22;;;;;;;16.90;9.18;;;26.50;99.90;;;;;;4770625;30;20055;-80
2022/07/03 07:26:49;;;;;;;;;;;26.70;99.90;;;;;;4770712;30;20208;-83
2022/07/03 07:29:49;;;;;;;15.95;9.05;;;26.80;99.90;;;;;;4769396;30;19933;-87
2022/07/03 07:32:17;;;;;;;14.55;9.43;;;26.80;99.90;;;;;;4798739;29;20083;-86
2022/07/03 07:34:44;;;;;;;13.20;9.35;;;26.90;99.90;;;;;;4770492;30;20054;-85
2022/07/03 07:37:21;;;;;;;14.00;8.90;;;27.00;99.90;;;;;;4769828;30;20065;-81
2022/07/03 07:39:48;;;;;;;16.00;9.32;;;26.90;99.90;;;;;;4771083;30;20048;-88
2022/07/03 07:42:16;;;;;;;11.95;9.40;;;27.00;99.90;;;;;;4769603;30;20066;-82
2022/07/03 07:44:57;;;;;;;43.35;34.13;;;27.10;99.90;;;;;;4798894;29;20043;-82
2022/07/03 07:47:29;;;;;;;41.00;30.65;;;27.10;99.90;;;;;;4773757;30;20058;-81
2022/07/03 07:49:56;;;;;;;57.50;42.10;;;27.10;99.90;;;;;;4788058;29;20051;-85
2022/07/03 07:52:24;;;;;;;36.40;30.25;;;27.10;99.90;;;;;;4788544;29;20047;-84
2022/07/03 07:54:51;;;;;;;19.08;12.32;;;27.20;99.90;;;;;;4787020;30;20043;-80
2022/07/03 07:57:22;;;;;;;14.68;7.85;;;27.20;99.90;;;;;;4788150;30;20055;-83
2022/07/03 07:59:50;;;;;;;9.85;8.00;;;27.30;99.90;;;;;;4787609;29;20046;-80
2022/07/03 08:07:59;;;;;;;14.60;8.02;;;27.50;99.90;;;;;;4787998;30;20108;-85
2022/07/03 08:10:26;;;;;;;231.25;193.32;;;27.50;99.90;;;;;;4788158;29;20051;-83
2022/07/03 08:12:53;;;;;;;99.57;57.08;;;27.40;99.90;;;;;;4801637;29;20377;-84
2022/07/03 08:15:21;;;;;;;12.48;7.78;;;27.30;99.90;;;;;;4790569;29;20048;-84
2022/07/03 08:17:49;;;;;;;325.70;287.00;;;27.20;99.90;;;;;;4797116;29;20047;-82
2022/07/03 08:20:16;;;;;;;15.00;10.15;;;27.30;99.90;;;;;;4805943;29;20034;-87
2022/07/03 08:22:44;;;;;;;17.10;10.90;;;27.30;99.90;;;;;;4805330;29;20063;-83
2022/07/03 08:25:11;;;;;;;17.95;12.38;;;27.40;99.90;;;;;;4804492;29;20042;-80
2022/07/03 08:27:39;;;;;;;15.38;9.23;;;27.60;99.90;;;;;;4804927;29;20051;-81
2022/07/03 08:30:07;;;;;;;19.33;13.55;;;27.70;99.90;;;;;;4805384;29;20531;-83
2022/07/03 08:32:35;;;;;;;27.27;19.67;;;27.80;99.90;;;;;;4789538;29;20086;-80
2022/07/03 08:35:02;;;;;;;349.38;290.50;;;27.90;99.90;;;;;;4805874;29;20050;-81
2022/07/03 08:37:30;;;;;;;336.10;264.80;;;27.90;99.50;;;;;;4794690;29;20063;-80
2022/07/03 08:39:58;;;;;;;;;;;28.10;99.90;;;;;;4795776;29;20047;-77
2022/07/03 08:42:28;;;;;;;187.70;110.50;;;28.00;99.00;;;;;;4795384;29;19932;-78
2022/07/03 08:44:56;;;;;;;65.72;48.33;;;28.00;99.20;;;;;;4794756;29;20059;-78
2022/07/03 08:47:26;;;;;;;22.35;16.23;;;27.90;98.40;;;;;;4794362;29;20564;-83
2022/07/03 08:49:56;;;;;;;11.63;8.55;;;28.00;98.60;;;;;;4802268;29;20071;-82
2022/07/03 08:52:23;;;;;;;16.13;9.65;;;28.10;98.40;;;;;;4805633;29;20055;-80
2022/07/03 08:54:50;;;;;;;16.35;7.65;;;28.00;98.40;;;;;;4805903;29;20054;-80
2022/07/03 08:57:18;;;;;;;16.67;12.90;;;28.00;98.20;;;;;;4805188;29;20046;-79
2022/07/03 08:59:51;;;;;;;19.95;15.38;;;28.10;98.60;;;;;;4804993;29;20043;-77
2022/07/03 09:02:20;;;;;;;40.20;29.95;;;28.10;98.00;;;;;;4805415;29;20047;-80
2022/07/03 09:04:48;;;;;;;29.88;23.50;;;28.20;97.30;;;;;;4804696;29;20051;-77
2022/07/03 09:07:19;;;;;;;69.80;46.85;;;28.30;97.50;;;;;;4804160;29;20138;-77
2022/07/03 09:09:46;;;;;;;153.77;105.18;;;28.40;97.30;;;;;;4804399;29;20113;-78
2022/07/03 09:12:14;;;;;;;20.77;11.02;;;28.60;97.10;;;;;;4804199;29;20115;-79
2022/07/03 09:14:41;;;;;;;13.52;8.50;;;28.80;96.90;;;;;;4805219;29;20050;-78
2022/07/03 09:17:10;;;;;;;13.02;8.82;;;28.60;96.50;;;;;;4805395;29;20148;-82
2022/07/03 09:19:47;;;;;;;11.60;7.97;;;28.50;96.20;;;;;;4805287;29;20073;-82
2022/07/03 09:22:29;;;;;;;15.82;11.88;;;28.40;96.10;;;;;;4804997;29;20489;-77
2022/07/03 09:25:06;;;;;;;22.48;17.60;;;28.30;97.00;;;;;;4804987;29;20051;-77
2022/07/03 09:27:34;;;;;;;20.30;15.07;;;28.50;96.80;;;;;;4804484;29;20046;-76
2022/07/03 09:30:07;;;;;;;33.00;25.15;;;28.60;96.50;;;;;;4788432;29;20492;-77
2022/07/03 09:32:38;;;;;;;28.45;17.45;;;28.60;95.90;;;;;;4804810;29;20047;-76
2022/07/03 09:35:23;;;;;;;15.20;9.48;;;28.70;96.20;;;;;;4804589;29;20073;-78
2022/07/03 09:37:55;;;;;;;13.65;8.90;;;28.70;96.20;;;;;;4804616;29;20047;-79
2022/07/03 09:40:24;;;;;;;12.15;7.25;;;28.60;94.90;;;;;;4807279;29;20046;-80
2022/07/03 09:42:59;;;;;;;15.27;8.68;;;28.60;94.50;;;;;;4808381;29;20047;-80
2022/07/03 09:45:48;;;;;;;11.65;6.60;;;28.60;94.90;;;;;;4808418;29;20050;-79
2022/07/03 09:48:29;;;;;;;9.52;6.13;;;28.70;93.40;;;;;;4802501;29;20055;-80
2022/07/03 09:51:23;;;;;;;9.80;6.53;;;28.90;92.30;;;;;;4790121;30;20050;-76
2022/07/03 09:53:54;;;;;;;8.90;6.15;;;29.10;93.80;;;;;;4790103;30;20051;-79
2022/07/03 09:56:26;;;;;;;13.15;6.72;;;29.30;92.50;;;;;;4789772;30;20052;-78
2022/07/03 09:59:03;;;;;;;7.93;5.72;;;29.40;92.40;;;;;;4789887;30;20050;-80
2022/07/03 10:01:34;;;;;;;10.45;6.90;;;29.60;92.10;;;;;;4789749;30;20121;-79
2022/07/03 10:04:21;;;;;;;8.02;5.75;;;29.30;92.30;;;;;;4790015;30;20069;-79
2022/07/03 10:06:59;;;;;;;9.57;6.95;;;29.40;91.20;;;;;;4774281;30;20059;-81
2022/07/03 10:09:29;;;;;;;9.75;7.05;;;29.50;91.40;;;;;;4789915;30;20134;-78
2022/07/03 10:11:58;;;;;;;9.27;6.20;;;29.60;91.40;;;;;;4794483;29;20043;-78
2022/07/03 10:14:28;;;;;;;12.27;6.85;;;29.80;91.60;;;;;;4796770;29;20071;-76
2022/07/03 10:16:57;;;;;;;10.10;6.80;;;29.80;91.10;;;;;;4795366;29;20050;-77
2022/07/03 10:19:29;;;;;;;10.13;6.32;;;29.90;91.90;;;;;;4795883;29;20046;-77
2022/07/03 10:22:00;;;;;;;12.30;7.68;;;29.90;90.50;;;;;;4807110;29;20564;-82
2022/07/03 10:24:29;;;;;;;8.18;6.28;;;30.00;90.20;;;;;;4804120;29;20057;-78
2022/07/03 10:26:58;;;;;;;20.05;12.60;;;29.90;90.40;;;;;;4807412;29;20096;-81
2022/07/03 10:29:27;;;;;;;62.33;47.63;;;30.00;89.80;;;;;;4807436;29;20047;-76
2022/07/03 10:31:57;;;;;;;22.17;17.60;;;30.30;89.30;;;;;;4807540;29;20460;-79
2022/07/03 10:34:27;;;;;;;14.10;11.32;;;30.30;89.70;;;;;;4807294;29;20067;-76
2022/07/03 10:37:08;;;;;;;12.35;7.07;;;30.20;89.00;;;;;;4807442;29;20058;-78
2022/07/03 10:39:49;;;;;;;11.95;7.32;;;30.30;85.00;;;;;;4790942;29;20108;-77
2022/07/03 10:45:20;;;;;;;9.98;6.60;;;30.50;86.00;;;;;;4806958;29;20095;-79
2022/07/03 10:47:48;;;;;;;10.05;7.07;;;30.50;84.80;;;;;;4806250;29;20043;-78
2022/07/03 10:50:23;;;;;;;10.23;7.50;;;30.60;85.90;;;;;;4788065;29;20108;-75
2022/07/03 10:52:51;;;;;;;12.52;7.72;;;30.60;85.60;;;;;;4788540;30;20412;-78
2022/07/03 10:55:19;;;;;;;14.35;8.65;;;30.60;85.70;;;;;;4788650;30;20054;-78
2022/07/03 10:58:06;;;;;;;18.77;14.13;;;30.60;86.00;;;;;;4789343;30;20043;-77
2022/07/03 11:01:00;;;;;;;25.08;20.65;;;30.80;85.80;;;;;;4788892;30;20092;-80
2022/07/03 11:03:57;;;;;;;16.67;13.85;;;30.80;84.40;;;;;;4773091;30;20055;-79
2022/07/03 11:06:40;;;;;;;11.02;7.93;;;30.50;87.20;;;;;;4789134;30;20051;-76
2022/07/03 11:09:15;;;;;;;14.27;10.38;;;30.80;85.60;;;;;;4773293;30;20050;-79
2022/07/03 11:12:02;;;;;;;66.20;48.67;;;30.90;86.40;;;;;;4789303;30;20048;-83
2022/07/03 11:14:30;;;;;;;15.63;12.18;;;30.80;86.00;;;;;;4788890;30;20104;-76
2022/07/03 11:17:18;;;;;;;12.57;7.60;;;30.90;85.00;;;;;;4788891;30;20058;-82
2022/07/03 11:20:23;;;;;;;17.70;13.57;;;30.90;84.40;;;;;;4788630;30;20047;-74
2022/07/03 11:23:02;;;;;;;17.63;13.07;;;30.70;85.00;;;;;;4788570;30;20458;-77
2022/07/03 11:25:47;;;;;;;15.38;11.45;;;30.70;86.20;;;;;;4772307;30;20067;-79
2022/07/03 11:28:33;;;;;;;14.00;11.18;;;31.00;85.50;;;;;;4757809;30;20043;-77
2022/07/03 11:31:08;;;;;;;15.02;11.05;;;31.10;86.20;;;;;;4788344;30;20065;-81
2022/07/03 11:33:51;;;;;;;12.95;7.60;;;31.30;83.80;;;;;;4787402;30;20126;-76
2022/07/03 11:36:22;;;;;;;10.38;6.68;;;31.30;83.10;;;;;;4788084;30;20102;-74
2022/07/03 11:39:11;;;;;;;10.63;6.88;;;31.30;82.90;;;;;;4788127;30;20050;-77
2022/07/03 11:41:39;;;;;;;12.60;7.93;;;31.50;83.10;;;;;;4787706;30;20047;-79
2022/07/03 11:44:08;;;;;;;11.18;7.82;;;31.40;82.60;;;;;;4772189;30;20070;-77
2022/07/03 11:46:38;;;;;;;9.25;7.00;;;31.60;82.20;;;;;;4787968;30;20039;-75
2022/07/03 11:49:32;;;;;;;;;;;31.60;81.90;;;;;;4787924;30;20055;-79
2022/07/03 11:52:02;;;;;;;9.30;7.00;;;31.60;81.80;;;;;;4787704;30;19926;-75
2022/07/03 11:54:30;;;;;;;;;;;31.80;81.70;;;;;;4788308;30;20043;-76
2022/07/03 11:56:59;;;;;;;7.97;6.38;;;31.70;80.60;;;;;;4788321;30;19972;-79
2022/07/03 11:59:27;;;;;;;8.77;6.72;;;31.70;79.70;;;;;;4788075;30;20134;-74
2022/07/03 12:02:02;;;;;;;15.25;7.45;;;31.80;79.90;;;;;;4788025;29;20110;-76
2022/07/03 12:04:31;;;;;;;13.32;10.32;;;31.60;81.10;;;;;;4771906;30;20047;-75
2022/07/03 12:07:00;;;;;;;37.90;26.00;;;31.80;81.60;;;;;;4786622;30;20155;-78
2022/07/03 12:09:36;;;;;;;19.07;13.30;;;31.80;80.00;;;;;;4787531;30;20051;-74
2022/07/03 12:12:05;;;;;;;11.77;7.75;;;31.80;79.10;;;;;;4787373;30;20111;-75
2022/07/03 12:14:43;;;;;;;13.00;10.63;;;32.10;78.50;;;;;;4788155;30;20051;-77
2022/07/03 12:17:21;;;;;;;11.88;8.07;;;32.00;79.00;;;;;;4787629;30;20056;-75
2022/07/03 12:20:00;;;;;;;11.45;7.95;;;32.00;78.50;;;;;;4787537;30;20056;-78
2022/07/03 12:22:37;;;;;;;12.90;8.52;;;32.00;77.70;;;;;;4787427;30;20051;-75
2022/07/03 12:25:07;;;;;;;10.40;8.18;;;31.90;78.30;;;;;;4787040;29;20763;-77
2022/07/03 12:27:45;;;;;;;9.82;6.82;;;32.00;78.50;;;;;;4787776;29;20050;-77
2022/07/03 12:30:27;;;;;;;9.13;6.57;;;32.10;77.90;;;;;;4787238;29;20486;-76
2022/07/03 12:32:56;;;;;;;9.68;6.45;;;32.30;77.20;;;;;;4787324;29;20074;-75
2022/07/03 12:35:25;;;;;;;9.65;7.35;;;32.40;77.30;;;;;;4771452;30;20512;-82
2022/07/03 12:37:52;;;;;;;12.05;6.85;;;32.20;78.50;;;;;;4787417;29;20051;-77
2022/07/03 12:40:20;;;;;;;8.00;6.07;;;31.80;79.40;;;;;;4787419;29;20043;-78
2022/07/03 12:42:50;;;;;;;11.13;7.20;;;32.20;81.90;;;;;;4787465;29;20134;-75
2022/07/03 12:45:18;;;;;;;;;;;32.20;81.80;;;;;;4788252;30;20047;-76
2022/07/03 12:47:56;;;;;;;10.35;7.38;;;31.80;78.30;;;;;;4786058;30;19925;-77
2022/07/03 12:50:24;;;;;;;10.60;7.10;;;31.90;77.30;;;;;;4799536;29;20430;-77
2022/07/03 12:52:55;;;;;;;9.10;6.47;;;32.10;81.70;;;;;;4786551;30;20385;-76
2022/07/03 12:55:28;;;;;;;23.23;17.55;;;32.00;77.70;;;;;;4789159;29;20049;-76
2022/07/03 13:01:05;;;;;;;;;;;32.40;78.00;;;;;;4810627;29;20069;-79
2022/07/03 13:03:39;;;;;;;13.40;8.02;;;32.50;74.20;;;;;;4804830;29;19954;-77
2022/07/03 13:06:15;;;;;;;11.50;6.63;;;32.70;73.50;;;;;;4804749;29;20050;-77
2022/07/03 13:09:09;;;;;;;8.27;6.10;;;32.80;74.30;;;;;;4804581;29;20059;-78
2022/07/03 13:11:41;;;;;;;17.30;13.25;;;32.60;77.40;;;;;;4802546;29;20077;-86
2022/07/03 13:14:16;;;;;;;24.77;18.17;;;32.30;80.50;;;;;;4804020;29;20047;-77
2022/07/03 13:16:45;;;;;;;36.78;28.02;;;31.70;75.40;;;;;;4804112;29;20055;-78
2022/07/03 13:19:23;;;;;;;;;;;32.40;73.10;;;;;;4803578;29;20499;-79